Terminal Aerodrome Forecast
Issued by NWS

Home | Current Version | Previous Version | Text Only | Print | Product List | Glossary On
Versions: 1 2 3 4 5 6 7 8 9 10 11 12 13 14 15 16 17 18 19 20 21 22 23 24
000
FTUS41 KBTV 182230 AAA
TAFMPV
TAF AMD
KMPV 182230Z 1823/1918 32011G20KT P6SM VCSH OVC012
      TEMPO 1823/1903 OVC009
     FM190600 32006KT 5SM BR VCSH SCT012 BKN028 OVC030
     FM191300 33010KT P6SM BKN035=

USA.gov is the U.S. government's official web portal to all federal, state and local government web resources and services.